sensor_id;sensor_type;location;lat;lon;timestamp;P1;durP1;ratioP1;P2;durP2;ratioP2
75356;SDS011;63946;51.986;5.930;2023-04-24T04:45:19;23.90;;;15.05;;
75356;SDS011;63946;51.986;5.930;2023-04-24T04:48:15;19.52;;;13.23;;
75356;SDS011;63946;51.986;5.930;2023-04-24T04:50:44;19.73;;;13.40;;
75356;SDS011;63946;51.986;5.930;2023-04-24T04:53:14;18.55;;;12.93;;
75356;SDS011;63946;51.986;5.930;2023-04-24T04:55:43;21.42;;;14.00;;
75356;SDS011;63946;51.986;5.930;2023-04-24T04:58:16;20.45;;;12.65;;
75356;SDS011;63946;51.986;5.930;2023-04-24T05:03:26;15.43;;;11.50;;
75356;SDS011;63946;51.986;5.930;2023-04-24T05:06:02;16.73;;;11.07;;
75356;SDS011;63946;51.986;5.930;2023-04-24T05:08:35;16.33;;;11.30;;
75356;SDS011;63946;51.986;5.930;2023-04-24T05:11:09;16.45;;;11.88;;
75356;SDS011;63946;51.986;5.930;2023-04-24T05:13:39;15.15;;;10.95;;
75356;SDS011;63946;51.986;5.930;2023-04-24T05:16:13;18.27;;;13.13;;
75356;SDS011;63946;51.986;5.930;2023-04-24T05:18:42;19.52;;;12.88;;
75356;SDS011;63946;51.986;5.930;2023-04-24T05:21:14;18.65;;;13.32;;
75356;SDS011;63946;51.986;5.930;2023-04-24T05:23:46;15.35;;;10.85;;
75356;SDS011;63946;51.986;5.930;2023-04-24T05:26:22;15.45;;;11.23;;
75356;SDS011;63946;51.986;5.930;2023-04-24T05:28:51;16.95;;;11.73;;
75356;SDS011;63946;51.986;5.930;2023-04-24T05:31:23;18.98;;;12.93;;
75356;SDS011;63946;51.986;5.930;2023-04-24T05:33:52;16.65;;;11.35;;
75356;SDS011;63946;51.986;5.930;2023-04-24T05:36:21;18.75;;;11.18;;
75356;SDS011;63946;51.986;5.930;2023-04-24T05:38:50;14.65;;;10.45;;
75356;SDS011;63946;51.986;5.930;2023-04-24T05:41:19;11.05;;;8.45;;
75356;SDS011;63946;51.986;5.930;2023-04-24T05:43:48;14.32;;;10.27;;
75356;SDS011;63946;51.986;5.930;2023-04-24T05:46:17;12.75;;;8.88;;
75356;SDS011;63946;51.986;5.930;2023-04-24T05:48:45;12.32;;;8.57;;
75356;SDS011;63946;51.986;5.930;2023-04-24T05:51:14;11.82;;;9.10;;
75356;SDS011;63946;51.986;5.930;2023-04-24T05:53:43;13.98;;;8.40;;
75356;SDS011;63946;51.986;5.930;2023-04-24T05:56:12;12.20;;;8.13;;
75356;SDS011;63946;51.986;5.930;2023-04-24T05:58:41;9.48;;;7.43;;
75356;SDS011;63946;51.986;5.930;2023-04-24T06:01:10;10.90;;;8.70;;
75356;SDS011;63946;51.986;5.930;2023-04-24T06:03:42;10.85;;;7.22;;
75356;SDS011;63946;51.986;5.930;2023-04-24T06:06:11;9.15;;;6.50;;
75356;SDS011;63946;51.986;5.930;2023-04-24T06:08:41;10.52;;;7.32;;
75356;SDS011;63946;51.986;5.930;2023-04-24T06:11:16;9.57;;;7.05;;
75356;SDS011;63946;51.986;5.930;2023-04-24T06:13:45;9.45;;;7.35;;
75356;SDS011;63946;51.986;5.930;2023-04-24T06:16:36;12.60;;;7.78;;
75356;SDS011;63946;51.986;5.930;2023-04-24T06:19:14;10.52;;;7.40;;
75356;SDS011;63946;51.986;5.930;2023-04-24T06:21:43;11.07;;;6.68;;
75356;SDS011;63946;51.986;5.930;2023-04-24T06:24:13;7.43;;;5.93;;
75356;SDS011;63946;51.986;5.930;2023-04-24T06:26:44;6.72;;;5.25;;
75356;SDS011;63946;51.986;5.930;2023-04-24T06:29:13;7.45;;;5.60;;
75356;SDS011;63946;51.986;5.930;2023-04-24T06:31:41;9.48;;;6.35;;
75356;SDS011;63946;51.986;5.930;2023-04-24T06:34:10;6.38;;;4.70;;
75356;SDS011;63946;51.986;5.930;2023-04-24T06:36:39;7.55;;;5.22;;
75356;SDS011;63946;51.986;5.930;2023-04-24T06:39:08;8.18;;;5.53;;
75356;SDS011;63946;51.986;5.930;2023-04-24T06:41:37;7.60;;;5.38;;
75356;SDS011;63946;51.986;5.930;2023-04-24T06:44:18;7.40;;;5.20;;
75356;SDS011;63946;51.986;5.930;2023-04-24T06:46:46;7.35;;;5.32;;
75356;SDS011;63946;51.986;5.930;2023-04-24T06:49:15;7.95;;;6.15;;
75356;SDS011;63946;51.986;5.930;2023-04-24T06:51:44;8.75;;;5.28;;
75356;SDS011;63946;51.986;5.930;2023-04-24T06:54:13;6.05;;;4.70;;
75356;SDS011;63946;51.986;5.930;2023-04-24T06:56:42;6.72;;;4.38;;
75356;SDS011;63946;51.986;5.930;2023-04-24T06:59:12;6.53;;;4.05;;
75356;SDS011;63946;51.986;5.930;2023-04-24T07:01:41;5.28;;;3.60;;
75356;SDS011;63946;51.986;5.930;2023-04-24T07:04:09;4.60;;;3.28;;
75356;SDS011;63946;51.986;5.930;2023-04-24T07:06:41;4.15;;;2.83;;
75356;SDS011;63946;51.986;5.930;2023-04-24T07:09:11;4.45;;;2.85;;
75356;SDS011;63946;51.986;5.930;2023-04-24T07:11:44;4.03;;;2.78;;
75356;SDS011;63946;51.986;5.930;2023-04-24T07:14:15;4.30;;;2.70;;
75356;SDS011;63946;51.986;5.930;2023-04-24T07:16:44;4.88;;;2.42;;
75356;SDS011;63946;51.986;5.930;2023-04-24T07:19:13;3.63;;;2.33;;
75356;SDS011;63946;51.986;5.930;2023-04-24T07:21:42;3.30;;;2.30;;
75356;SDS011;63946;51.986;5.930;2023-04-24T07:24:11;3.40;;;2.05;;
75356;SDS011;63946;51.986;5.930;2023-04-24T07:26:40;4.97;;;1.90;;
75356;SDS011;63946;51.986;5.930;2023-04-24T07:29:12;2.50;;;1.80;;
75356;SDS011;63946;51.986;5.930;2023-04-24T07:31:41;3.78;;;1.50;;
75356;SDS011;63946;51.986;5.930;2023-04-24T07:34:12;2.65;;;1.75;;
75356;SDS011;63946;51.986;5.930;2023-04-24T07:36:41;2.60;;;1.70;;
75356;SDS011;63946;51.986;5.930;2023-04-24T07:39:10;2.58;;;1.42;;
75356;SDS011;63946;51.986;5.930;2023-04-24T07:41:39;2.20;;;1.55;;
75356;SDS011;63946;51.986;5.930;2023-04-24T07:44:08;1.70;;;1.30;;
75356;SDS011;63946;51.986;5.930;2023-04-24T07:46:36;2.90;;;1.50;;
75356;SDS011;63946;51.986;5.930;2023-04-24T07:49:05;2.15;;;1.45;;
75356;SDS011;63946;51.986;5.930;2023-04-24T07:51:34;3.45;;;2.17;;
75356;SDS011;63946;51.986;5.930;2023-04-24T07:54:04;3.25;;;2.15;;
75356;SDS011;63946;51.986;5.930;2023-04-24T07:56:34;3.67;;;2.65;;
75356;SDS011;63946;51.986;5.930;2023-04-24T07:59:04;5.40;;;3.03;;
75356;SDS011;63946;51.986;5.930;2023-04-24T08:01:36;4.45;;;3.33;;
75356;SDS011;63946;51.986;5.930;2023-04-24T08:04:05;6.53;;;3.85;;
75356;SDS011;63946;51.986;5.930;2023-04-24T08:06:34;5.32;;;4.15;;
75356;SDS011;63946;51.986;5.930;2023-04-24T08:09:03;7.32;;;3.97;;
75356;SDS011;63946;51.986;5.930;2023-04-24T08:11:31;6.40;;;4.32;;
75356;SDS011;63946;51.986;5.930;2023-04-24T08:14:00;5.80;;;4.40;;
75356;SDS011;63946;51.986;5.930;2023-04-24T08:16:29;10.50;;;5.00;;
75356;SDS011;63946;51.986;5.930;2023-04-24T08:18:58;7.30;;;4.22;;
75356;SDS011;63946;51.986;5.930;2023-04-24T08:21:27;6.32;;;4.40;;
75356;SDS011;63946;51.986;5.930;2023-04-24T08:23:58;7.10;;;4.32;;
75356;SDS011;63946;51.986;5.930;2023-04-24T08:26:30;12.23;;;4.38;;
75356;SDS011;63946;51.986;5.930;2023-04-24T08:28:59;7.13;;;4.68;;
75356;SDS011;63946;51.986;5.930;2023-04-24T08:31:29;7.38;;;4.68;;
75356;SDS011;63946;51.986;5.930;2023-04-24T08:33:58;7.40;;;4.90;;
75356;SDS011;63946;51.986;5.930;2023-04-24T08:36:27;10.55;;;5.07;;
75356;SDS011;63946;51.986;5.930;2023-04-24T08:38:56;7.88;;;4.18;;
75356;SDS011;63946;51.986;5.930;2023-04-24T08:41:26;6.80;;;4.40;;
75356;SDS011;63946;51.986;5.930;2023-04-24T08:43:58;6.63;;;4.03;;
75356;SDS011;63946;51.986;5.930;2023-04-24T08:46:27;9.32;;;4.70;;
75356;SDS011;63946;51.986;5.930;2023-04-24T08:48:56;7.75;;;5.10;;
75356;SDS011;63946;51.986;5.930;2023-04-24T08:51:29;6.13;;;4.85;;
75356;SDS011;63946;51.986;5.930;2023-04-24T08:53:59;11.70;;;5.10;;
75356;SDS011;63946;51.986;5.930;2023-04-24T08:56:29;7.82;;;4.63;;
75356;SDS011;63946;51.986;5.930;2023-04-24T08:59:08;9.43;;;4.38;;
75356;SDS011;63946;51.986;5.930;2023-04-24T09:01:37;9.40;;;4.88;;
75356;SDS011;63946;51.986;5.930;2023-04-24T09:04:08;11.18;;;5.60;;
75356;SDS011;63946;51.986;5.930;2023-04-24T09:06:38;7.85;;;4.65;;
75356;SDS011;63946;51.986;5.930;2023-04-24T09:09:08;8.20;;;3.97;;
75356;SDS011;63946;51.986;5.930;2023-04-24T09:11:38;5.95;;;3.70;;
75356;SDS011;63946;51.986;5.930;2023-04-24T09:14:09;5.47;;;2.88;;
75356;SDS011;63946;51.986;5.930;2023-04-24T09:16:38;6.85;;;2.97;;
75356;SDS011;63946;51.986;5.930;2023-04-24T09:19:07;7.68;;;3.20;;
75356;SDS011;63946;51.986;5.930;2023-04-24T09:21:35;5.40;;;3.35;;
75356;SDS011;63946;51.986;5.930;2023-04-24T09:24:07;6.55;;;2.75;;
75356;SDS011;63946;51.986;5.930;2023-04-24T09:26:43;5.20;;;2.88;;
75356;SDS011;63946;51.986;5.930;2023-04-24T09:29:16;6.80;;;2.83;;
75356;SDS011;63946;51.986;5.930;2023-04-24T09:31:45;7.38;;;2.80;;
75356;SDS011;63946;51.986;5.930;2023-04-24T09:34:14;9.50;;;2.90;;
75356;SDS011;63946;51.986;5.930;2023-04-24T09:36:49;7.63;;;2.70;;
75356;SDS011;63946;51.986;5.930;2023-04-24T09:39:18;8.88;;;2.30;;
75356;SDS011;63946;51.986;5.930;2023-04-24T09:41:54;9.57;;;2.42;;
75356;SDS011;63946;51.986;5.930;2023-04-24T09:44:26;9.65;;;2.55;;
75356;SDS011;63946;51.986;5.930;2023-04-24T09:46:57;8.32;;;2.10;;
75356;SDS011;63946;51.986;5.930;2023-04-24T09:49:30;7.65;;;2.55;;
75356;SDS011;63946;51.986;5.930;2023-04-24T09:52:11;6.68;;;2.53;;
75356;SDS011;63946;51.986;5.930;2023-04-24T09:54:40;6.55;;;2.08;;
75356;SDS011;63946;51.986;5.930;2023-04-24T09:57:14;8.20;;;2.55;;
75356;SDS011;63946;51.986;5.930;2023-04-24T09:59:45;7.65;;;2.10;;
75356;SDS011;63946;51.986;5.930;2023-04-24T10:02:18;9.30;;;2.38;;
75356;SDS011;63946;51.986;5.930;2023-04-24T10:04:57;6.25;;;2.28;;
75356;SDS011;63946;51.986;5.930;2023-04-24T10:07:26;9.02;;;2.75;;
75356;SDS011;63946;51.986;5.930;2023-04-24T10:09:55;7.85;;;2.40;;
75356;SDS011;63946;51.986;5.930;2023-04-24T10:12:26;3.92;;;2.22;;
75356;SDS011;63946;51.986;5.930;2023-04-24T10:14:55;5.68;;;1.75;;
75356;SDS011;63946;51.986;5.930;2023-04-24T10:17:27;7.07;;;2.15;;
75356;SDS011;63946;51.986;5.930;2023-04-24T10:19:57;8.38;;;2.53;;
75356;SDS011;63946;51.986;5.930;2023-04-24T10:22:29;7.13;;;2.63;;
75356;SDS011;63946;51.986;5.930;2023-04-24T10:24:59;10.70;;;2.40;;
75356;SDS011;63946;51.986;5.930;2023-04-24T10:27:28;5.65;;;2.00;;
75356;SDS011;63946;51.986;5.930;2023-04-24T10:29:59;8.60;;;2.75;;
75356;SDS011;63946;51.986;5.930;2023-04-24T10:34:58;9.45;;;2.40;;
75356;SDS011;63946;51.986;5.930;2023-04-24T10:37:27;7.32;;;2.08;;
75356;SDS011;63946;51.986;5.930;2023-04-24T10:39:57;7.88;;;2.33;;
75356;SDS011;63946;51.986;5.930;2023-04-24T10:42:26;7.85;;;2.35;;
75356;SDS011;63946;51.986;5.930;2023-04-24T10:44:56;7.55;;;2.25;;
75356;SDS011;63946;51.986;5.930;2023-04-24T10:47:27;5.93;;;2.28;;
75356;SDS011;63946;51.986;5.930;2023-04-24T10:49:58;7.22;;;2.10;;
75356;SDS011;63946;51.986;5.930;2023-04-24T10:52:43;9.15;;;2.65;;
75356;SDS011;63946;51.986;5.930;2023-04-24T10:55:13;4.57;;;1.67;;
75356;SDS011;63946;51.986;5.930;2023-04-24T10:58:02;5.97;;;2.05;;
75356;SDS011;63946;51.986;5.930;2023-04-24T11:00:31;4.53;;;1.80;;
75356;SDS011;63946;51.986;5.930;2023-04-24T11:03:00;6.63;;;1.77;;
75356;SDS011;63946;51.986;5.930;2023-04-24T11:05:48;3.50;;;1.50;;
75356;SDS011;63946;51.986;5.930;2023-04-24T11:08:38;4.22;;;1.95;;
75356;SDS011;63946;51.986;5.930;2023-04-24T11:11:11;7.25;;;2.20;;
75356;SDS011;63946;51.986;5.930;2023-04-24T11:21:39;2.95;;;1.48;;
75356;SDS011;63946;51.986;5.930;2023-04-24T11:26:53;6.18;;;1.70;;
75356;SDS011;63946;51.986;5.930;2023-04-24T11:29:37;3.88;;;1.13;;
75356;SDS011;63946;51.986;5.930;2023-04-24T11:35:08;5.57;;;1.35;;
75356;SDS011;63946;51.986;5.930;2023-04-24T11:37:46;2.30;;;1.02;;
75356;SDS011;63946;51.986;5.930;2023-04-24T11:40:16;3.10;;;1.00;;
75356;SDS011;63946;51.986;5.930;2023-04-24T11:42:49;3.78;;;1.20;;
75356;SDS011;63946;51.986;5.930;2023-04-24T11:45:30;2.08;;;0.93;;
75356;SDS011;63946;51.986;5.930;2023-04-24T11:47:59;3.33;;;1.10;;
75356;SDS011;63946;51.986;5.930;2023-04-24T11:50:28;4.18;;;0.75;;
75356;SDS011;63946;51.986;5.930;2023-04-24T11:52:59;1.67;;;0.90;;
75356;SDS011;63946;51.986;5.930;2023-04-24T11:55:32;3.63;;;0.82;;
75356;SDS011;63946;51.986;5.930;2023-04-24T11:58:00;4.32;;;1.15;;
75356;SDS011;63946;51.986;5.930;2023-04-24T12:00:30;3.65;;;1.08;;
75356;SDS011;63946;51.986;5.930;2023-04-24T12:03:09;1.38;;;0.70;;
75356;SDS011;63946;51.986;5.930;2023-04-24T12:05:39;2.50;;;0.80;;
75356;SDS011;63946;51.986;5.930;2023-04-24T12:08:10;4.70;;;1.00;;
75356;SDS011;63946;51.986;5.930;2023-04-24T12:10:38;1.67;;;0.95;;
75356;SDS011;63946;51.986;5.930;2023-04-24T12:13:08;1.80;;;1.00;;
75356;SDS011;63946;51.986;5.930;2023-04-24T12:15:39;1.65;;;1.00;;
75356;SDS011;63946;51.986;5.930;2023-04-24T12:18:08;3.38;;;1.05;;
75356;SDS011;63946;51.986;5.930;2023-04-24T12:20:42;2.55;;;0.70;;
75356;SDS011;63946;51.986;5.930;2023-04-24T12:23:11;3.72;;;1.20;;
75356;SDS011;63946;51.986;5.930;2023-04-24T12:25:40;2.65;;;1.27;;
75356;SDS011;63946;51.986;5.930;2023-04-24T12:28:10;2.92;;;0.90;;
75356;SDS011;63946;51.986;5.930;2023-04-24T12:30:44;5.03;;;1.10;;
75356;SDS011;63946;51.986;5.930;2023-04-24T12:33:19;2.10;;;0.93;;
75356;SDS011;63946;51.986;5.930;2023-04-24T12:35:50;2.70;;;0.80;;
75356;SDS011;63946;51.986;5.930;2023-04-24T12:38:24;2.22;;;0.90;;
75356;SDS011;63946;51.986;5.930;2023-04-24T12:41:04;4.55;;;1.10;;
75356;SDS011;63946;51.986;5.930;2023-04-24T12:43:37;1.48;;;0.55;;
75356;SDS011;63946;51.986;5.930;2023-04-24T12:46:06;1.50;;;0.88;;
75356;SDS011;63946;51.986;5.930;2023-04-24T12:48:35;1.67;;;0.95;;
75356;SDS011;63946;51.986;5.930;2023-04-24T12:51:03;4.22;;;0.75;;
75356;SDS011;63946;51.986;5.930;2023-04-24T12:53:32;4.18;;;0.80;;
75356;SDS011;63946;51.986;5.930;2023-04-24T12:56:01;3.40;;;0.88;;
75356;SDS011;63946;51.986;5.930;2023-04-24T13:01:00;3.13;;;0.90;;
75356;SDS011;63946;51.986;5.930;2023-04-24T13:03:29;1.58;;;0.82;;
75356;SDS011;63946;51.986;5.930;2023-04-24T13:05:58;4.90;;;0.77;;
75356;SDS011;63946;51.986;5.930;2023-04-24T13:08:26;2.85;;;0.93;;
75356;SDS011;63946;51.986;5.930;2023-04-24T13:10:55;2.15;;;0.88;;
75356;SDS011;63946;51.986;5.930;2023-04-24T13:13:24;5.13;;;0.98;;
75356;SDS011;63946;51.986;5.930;2023-04-24T13:15:52;2.33;;;1.02;;
75356;SDS011;63946;51.986;5.930;2023-04-24T13:18:21;2.70;;;1.15;;
75356;SDS011;63946;51.986;5.930;2023-04-24T13:20:50;2.33;;;1.08;;
75356;SDS011;63946;51.986;5.930;2023-04-24T13:23:18;3.78;;;1.25;;
75356;SDS011;63946;51.986;5.930;2023-04-24T13:25:48;3.90;;;1.15;;
75356;SDS011;63946;51.986;5.930;2023-04-24T13:28:17;4.90;;;1.13;;
75356;SDS011;63946;51.986;5.930;2023-04-24T13:30:46;2.85;;;1.10;;
75356;SDS011;63946;51.986;5.930;2023-04-24T13:33:14;3.35;;;0.95;;
75356;SDS011;63946;51.986;5.930;2023-04-24T13:35:43;3.63;;;1.10;;
75356;SDS011;63946;51.986;5.930;2023-04-24T13:38:12;4.25;;;1.42;;
75356;SDS011;63946;51.986;5.930;2023-04-24T13:40:40;5.47;;;1.58;;
75356;SDS011;63946;51.986;5.930;2023-04-24T13:43:11;7.50;;;1.45;;
75356;SDS011;63946;51.986;5.930;2023-04-24T13:45:44;4.50;;;1.42;;
75356;SDS011;63946;51.986;5.930;2023-04-24T13:48:12;5.15;;;1.27;;
75356;SDS011;63946;51.986;5.930;2023-04-24T13:50:42;4.68;;;1.20;;
75356;SDS011;63946;51.986;5.930;2023-04-24T13:53:13;5.60;;;1.40;;
75356;SDS011;63946;51.986;5.930;2023-04-24T13:55:42;3.38;;;1.20;;
75356;SDS011;63946;51.986;5.930;2023-04-24T13:58:14;3.88;;;1.10;;
75356;SDS011;63946;51.986;5.930;2023-04-24T14:00:43;4.95;;;1.20;;
75356;SDS011;63946;51.986;5.930;2023-04-24T14:03:11;8.10;;;1.80;;
75356;SDS011;63946;51.986;5.930;2023-04-24T14:05:40;7.07;;;1.80;;
75356;SDS011;63946;51.986;5.930;2023-04-24T14:08:09;4.75;;;1.60;;
75356;SDS011;63946;51.986;5.930;2023-04-24T14:10:37;4.05;;;1.42;;
75356;SDS011;63946;51.986;5.930;2023-04-24T14:13:06;4.13;;;1.50;;
75356;SDS011;63946;51.986;5.930;2023-04-24T14:15:35;4.75;;;1.10;;
75356;SDS011;63946;51.986;5.930;2023-04-24T14:18:04;5.05;;;1.70;;
75356;SDS011;63946;51.986;5.930;2023-04-24T14:20:33;3.15;;;1.60;;
75356;SDS011;63946;51.986;5.930;2023-04-24T14:23:02;7.43;;;1.75;;
75356;SDS011;63946;51.986;5.930;2023-04-24T14:25:30;8.65;;;2.33;;
75356;SDS011;63946;51.986;5.930;2023-04-24T14:28:02;6.30;;;1.80;;
75356;SDS011;63946;51.986;5.930;2023-04-24T14:30:31;5.22;;;1.80;;
75356;SDS011;63946;51.986;5.930;2023-04-24T14:33:00;8.05;;;2.08;;
75356;SDS011;63946;51.986;5.930;2023-04-24T14:35:29;10.77;;;1.95;;
75356;SDS011;63946;51.986;5.930;2023-04-24T14:37:59;6.68;;;2.00;;
75356;SDS011;63946;51.986;5.930;2023-04-24T14:40:28;5.82;;;2.08;;
75356;SDS011;63946;51.986;5.930;2023-04-24T14:42:58;12.95;;;2.17;;
75356;SDS011;63946;51.986;5.930;2023-04-24T14:45:27;8.77;;;2.17;;
75356;SDS011;63946;51.986;5.930;2023-04-24T14:47:56;6.20;;;1.90;;
75356;SDS011;63946;51.986;5.930;2023-04-24T14:50:25;9.90;;;2.17;;
75356;SDS011;63946;51.986;5.930;2023-04-24T14:52:55;6.65;;;2.00;;
75356;SDS011;63946;51.986;5.930;2023-04-24T14:55:24;5.43;;;1.95;;
75356;SDS011;63946;51.986;5.930;2023-04-24T14:57:54;5.53;;;2.03;;
75356;SDS011;63946;51.986;5.930;2023-04-24T15:00:23;6.13;;;1.73;;
75356;SDS011;63946;51.986;5.930;2023-04-24T15:02:51;4.95;;;1.75;;
75356;SDS011;63946;51.986;5.930;2023-04-24T15:05:20;6.70;;;1.75;;
75356;SDS011;63946;51.986;5.930;2023-04-24T15:07:50;6.35;;;1.95;;
75356;SDS011;63946;51.986;5.930;2023-04-24T15:10:19;6.30;;;2.22;;
75356;SDS011;63946;51.986;5.930;2023-04-24T15:12:48;10.15;;;2.67;;
75356;SDS011;63946;51.986;5.930;2023-04-24T15:15:17;5.93;;;2.55;;
75356;SDS011;63946;51.986;5.930;2023-04-24T15:17:46;9.95;;;2.65;;
75356;SDS011;63946;51.986;5.930;2023-04-24T15:20:14;6.38;;;1.98;;
75356;SDS011;63946;51.986;5.930;2023-04-24T15:22:43;8.27;;;2.20;;
75356;SDS011;63946;51.986;5.930;2023-04-24T15:25:12;7.47;;;2.05;;
75356;SDS011;63946;51.986;5.930;2023-04-24T15:27:44;5.28;;;2.17;;
75356;SDS011;63946;51.986;5.930;2023-04-24T15:30:13;4.88;;;1.90;;
75356;SDS011;63946;51.986;5.930;2023-04-24T15:32:42;5.85;;;2.80;;
75356;SDS011;63946;51.986;5.930;2023-04-24T15:35:11;6.65;;;1.92;;
75356;SDS011;63946;51.986;5.930;2023-04-24T15:37:40;5.30;;;2.17;;
75356;SDS011;63946;51.986;5.930;2023-04-24T15:40:09;6.18;;;2.13;;
75356;SDS011;63946;51.986;5.930;2023-04-24T15:42:41;7.15;;;2.33;;
75356;SDS011;63946;51.986;5.930;2023-04-24T15:45:11;4.22;;;2.10;;
75356;SDS011;63946;51.986;5.930;2023-04-24T15:47:40;10.05;;;2.50;;
75356;SDS011;63946;51.986;5.930;2023-04-24T15:50:09;5.50;;;2.20;;
75356;SDS011;63946;51.986;5.930;2023-04-24T15:52:37;5.25;;;1.92;;
75356;SDS011;63946;51.986;5.930;2023-04-24T15:55:06;5.72;;;1.88;;
75356;SDS011;63946;51.986;5.930;2023-04-24T15:57:35;6.78;;;2.42;;
75356;SDS011;63946;51.986;5.930;2023-04-24T16:00:04;9.73;;;2.50;;
75356;SDS011;63946;51.986;5.930;2023-04-24T16:02:42;7.25;;;2.22;;
75356;SDS011;63946;51.986;5.930;2023-04-24T16:05:11;7.07;;;2.47;;
75356;SDS011;63946;51.986;5.930;2023-04-24T16:07:40;6.18;;;2.25;;
75356;SDS011;63946;51.986;5.930;2023-04-24T16:10:08;6.80;;;2.22;;
75356;SDS011;63946;51.986;5.930;2023-04-24T16:12:38;10.88;;;2.55;;
75356;SDS011;63946;51.986;5.930;2023-04-24T16:15:10;8.02;;;2.88;;
75356;SDS011;63946;51.986;5.930;2023-04-24T16:17:42;8.90;;;2.45;;
75356;SDS011;63946;51.986;5.930;2023-04-24T16:20:11;7.85;;;2.45;;
75356;SDS011;63946;51.986;5.930;2023-04-24T16:22:46;7.95;;;2.33;;
75356;SDS011;63946;51.986;5.930;2023-04-24T16:25:15;6.13;;;2.67;;
75356;SDS011;63946;51.986;5.930;2023-04-24T16:27:44;5.00;;;2.50;;
75356;SDS011;63946;51.986;5.930;2023-04-24T16:30:13;8.98;;;2.90;;
75356;SDS011;63946;51.986;5.930;2023-04-24T16:32:42;8.50;;;2.40;;
75356;SDS011;63946;51.986;5.930;2023-04-24T16:35:11;5.07;;;2.28;;
75356;SDS011;63946;51.986;5.930;2023-04-24T16:37:39;8.20;;;2.72;;
75356;SDS011;63946;51.986;5.930;2023-04-24T16:40:08;9.05;;;2.60;;
75356;SDS011;63946;51.986;5.930;2023-04-24T16:42:38;7.53;;;2.83;;
75356;SDS011;63946;51.986;5.930;2023-04-24T16:45:12;7.95;;;2.60;;
75356;SDS011;63946;51.986;5.930;2023-04-24T16:50:40;8.07;;;2.40;;
75356;SDS011;63946;51.986;5.930;2023-04-24T16:53:10;7.25;;;2.50;;
75356;SDS011;63946;51.986;5.930;2023-04-24T16:55:39;6.47;;;2.60;;
75356;SDS011;63946;51.986;5.930;2023-04-24T16:58:09;7.60;;;2.80;;
75356;SDS011;63946;51.986;5.930;2023-04-24T17:00:37;7.85;;;3.00;;
75356;SDS011;63946;51.986;5.930;2023-04-24T17:03:06;10.75;;;3.20;;
75356;SDS011;63946;51.986;5.930;2023-04-24T17:05:40;9.07;;;2.67;;
75356;SDS011;63946;51.986;5.930;2023-04-24T17:08:09;7.82;;;2.58;;
75356;SDS011;63946;51.986;5.930;2023-04-24T17:10:38;7.28;;;2.42;;
75356;SDS011;63946;51.986;5.930;2023-04-24T17:13:07;6.10;;;2.35;;
75356;SDS011;63946;51.986;5.930;2023-04-24T17:15:36;5.40;;;2.42;;
75356;SDS011;63946;51.986;5.930;2023-04-24T17:18:13;7.50;;;2.80;;
75356;SDS011;63946;51.986;5.930;2023-04-24T17:20:42;4.22;;;2.42;;
75356;SDS011;63946;51.986;5.930;2023-04-24T17:23:13;6.78;;;2.50;;
75356;SDS011;63946;51.986;5.930;2023-04-24T17:25:42;11.00;;;3.17;;
75356;SDS011;63946;51.986;5.930;2023-04-24T17:30:50;7.28;;;2.13;;
75356;SDS011;63946;51.986;5.930;2023-04-24T17:33:20;9.60;;;2.60;;
75356;SDS011;63946;51.986;5.930;2023-04-24T17:35:49;7.90;;;2.45;;
75356;SDS011;63946;51.986;5.930;2023-04-24T17:38:19;6.72;;;2.50;;
75356;SDS011;63946;51.986;5.930;2023-04-24T17:40:49;6.68;;;2.35;;
75356;SDS011;63946;51.986;5.930;2023-04-24T17:43:24;6.93;;;2.45;;
75356;SDS011;63946;51.986;5.930;2023-04-24T17:45:53;8.15;;;2.95;;
75356;SDS011;63946;51.986;5.930;2023-04-24T17:48:23;10.48;;;2.85;;
75356;SDS011;63946;51.986;5.930;2023-04-24T17:50:52;7.65;;;2.92;;
75356;SDS011;63946;51.986;5.930;2023-04-24T17:53:21;5.80;;;3.00;;
75356;SDS011;63946;51.986;5.930;2023-04-24T17:55:50;8.27;;;3.63;;
75356;SDS011;63946;51.986;5.930;2023-04-24T17:58:23;7.30;;;2.17;;
75356;SDS011;63946;51.986;5.930;2023-04-24T18:00:52;8.90;;;2.72;;
75356;SDS011;63946;51.986;5.930;2023-04-24T18:03:21;8.40;;;2.50;;
75356;SDS011;63946;51.986;5.930;2023-04-24T18:05:50;7.68;;;2.90;;
75356;SDS011;63946;51.986;5.930;2023-04-24T18:08:19;4.82;;;2.97;;
75356;SDS011;63946;51.986;5.930;2023-04-24T18:10:47;7.30;;;3.38;;
75356;SDS011;63946;51.986;5.930;2023-04-24T18:13:16;6.97;;;2.65;;
75356;SDS011;63946;51.986;5.930;2023-04-24T18:15:45;7.30;;;2.75;;
75356;SDS011;63946;51.986;5.930;2023-04-24T18:18:14;7.18;;;2.38;;
75356;SDS011;63946;51.986;5.930;2023-04-24T18:20:43;8.10;;;3.03;;
75356;SDS011;63946;51.986;5.930;2023-04-24T18:23:11;11.10;;;3.58;;
75356;SDS011;63946;51.986;5.930;2023-04-24T18:25:41;11.45;;;3.38;;
75356;SDS011;63946;51.986;5.930;2023-04-24T18:28:10;11.57;;;3.20;;
75356;SDS011;63946;51.986;5.930;2023-04-24T18:30:42;8.73;;;3.35;;
75356;SDS011;63946;51.986;5.930;2023-04-24T18:33:10;9.30;;;2.92;;
75356;SDS011;63946;51.986;5.930;2023-04-24T18:35:39;10.82;;;3.03;;
75356;SDS011;63946;51.986;5.930;2023-04-24T18:38:08;6.13;;;2.90;;
75356;SDS011;63946;51.986;5.930;2023-04-24T18:40:37;7.97;;;2.55;;
75356;SDS011;63946;51.986;5.930;2023-04-24T18:43:05;5.78;;;2.78;;
75356;SDS011;63946;51.986;5.930;2023-04-24T18:45:34;7.10;;;2.53;;
75356;SDS011;63946;51.986;5.930;2023-04-24T18:48:03;9.30;;;2.95;;
75356;SDS011;63946;51.986;5.930;2023-04-24T18:50:31;8.82;;;2.97;;
75356;SDS011;63946;51.986;5.930;2023-04-24T18:53:00;8.98;;;2.65;;
75356;SDS011;63946;51.986;5.930;2023-04-24T18:55:36;11.00;;;3.05;;
75356;SDS011;63946;51.986;5.930;2023-04-24T18:58:23;11.43;;;3.47;;
75356;SDS011;63946;51.986;5.930;2023-04-24T19:00:52;6.63;;;3.10;;
75356;SDS011;63946;51.986;5.930;2023-04-24T19:03:21;10.38;;;2.95;;
75356;SDS011;63946;51.986;5.930;2023-04-24T19:05:52;8.73;;;3.38;;
75356;SDS011;63946;51.986;5.930;2023-04-24T19:08:21;9.30;;;3.00;;
75356;SDS011;63946;51.986;5.930;2023-04-24T19:10:50;16.08;;;4.00;;
75356;SDS011;63946;51.986;5.930;2023-04-24T19:13:25;10.85;;;3.13;;
75356;SDS011;63946;51.986;5.930;2023-04-24T19:15:54;12.93;;;3.42;;
75356;SDS011;63946;51.986;5.930;2023-04-24T19:18:22;8.20;;;3.10;;
75356;SDS011;63946;51.986;5.930;2023-04-24T19:20:51;15.55;;;4.28;;
75356;SDS011;63946;51.986;5.930;2023-04-24T19:23:20;11.23;;;3.35;;
75356;SDS011;63946;51.986;5.930;2023-04-24T19:25:49;9.13;;;3.55;;
75356;SDS011;63946;51.986;5.930;2023-04-24T19:28:17;10.98;;;2.75;;
75356;SDS011;63946;51.986;5.930;2023-04-24T19:30:49;12.65;;;3.15;;
75356;SDS011;63946;51.986;5.930;2023-04-24T19:33:20;8.45;;;2.70;;
75356;SDS011;63946;51.986;5.930;2023-04-24T19:35:49;9.52;;;2.90;;
75356;SDS011;63946;51.986;5.930;2023-04-24T19:38:18;10.00;;;2.55;;
75356;SDS011;63946;51.986;5.930;2023-04-24T19:40:47;12.07;;;3.50;;
75356;SDS011;63946;51.986;5.930;2023-04-24T19:43:16;10.93;;;3.03;;
75356;SDS011;63946;51.986;5.930;2023-04-24T19:45:45;7.32;;;2.90;;
75356;SDS011;63946;51.986;5.930;2023-04-24T19:48:15;9.20;;;3.03;;
75356;SDS011;63946;51.986;5.930;2023-04-24T19:50:43;10.75;;;2.90;;
75356;SDS011;63946;51.986;5.930;2023-04-24T19:53:12;7.10;;;2.08;;
75356;SDS011;63946;51.986;5.930;2023-04-24T19:55:41;8.52;;;3.00;;
75356;SDS011;63946;51.986;5.930;2023-04-24T19:58:10;8.55;;;2.38;;
75356;SDS011;63946;51.986;5.930;2023-04-24T20:00:39;10.43;;;2.80;;
75356;SDS011;63946;51.986;5.930;2023-04-24T20:03:08;10.07;;;3.10;;
75356;SDS011;63946;51.986;5.930;2023-04-24T20:05:36;11.02;;;2.83;;
75356;SDS011;63946;51.986;5.930;2023-04-24T20:08:08;5.57;;;2.53;;
75356;SDS011;63946;51.986;5.930;2023-04-24T20:10:37;10.80;;;2.97;;
75356;SDS011;63946;51.986;5.930;2023-04-24T20:13:06;8.85;;;3.15;;